sensor_id;sensor_type;location;lat;lon;timestamp;P1;durP1;ratioP1;P2;durP2;ratioP2
7045;SDS011;3564;53.326;10.356;2023-05-21T00:02:07;3.63;;;2.93;;
7045;SDS011;3564;53.326;10.356;2023-05-21T00:04:36;5.10;;;2.60;;
7045;SDS011;3564;53.326;10.356;2023-05-21T00:07:04;5.10;;;3.13;;
7045;SDS011;3564;53.326;10.356;2023-05-21T00:09:30;4.40;;;2.90;;
7045;SDS011;3564;53.326;10.356;2023-05-21T00:11:56;4.17;;;2.73;;
7045;SDS011;3564;53.326;10.356;2023-05-21T00:14:21;4.80;;;2.87;;
7045;SDS011;3564;53.326;10.356;2023-05-21T00:16:47;5.07;;;3.50;;
7045;SDS011;3564;53.326;10.356;2023-05-21T00:19:13;5.37;;;3.00;;
7045;SDS011;3564;53.326;10.356;2023-05-21T00:21:38;4.53;;;2.97;;
7045;SDS011;3564;53.326;10.356;2023-05-21T00:24:05;6.30;;;3.27;;
7045;SDS011;3564;53.326;10.356;2023-05-21T00:26:30;4.93;;;2.53;;
7045;SDS011;3564;53.326;10.356;2023-05-21T00:28:56;6.00;;;3.10;;
7045;SDS011;3564;53.326;10.356;2023-05-21T00:31:22;6.13;;;3.07;;
7045;SDS011;3564;53.326;10.356;2023-05-21T00:33:48;4.70;;;2.67;;
7045;SDS011;3564;53.326;10.356;2023-05-21T00:36:14;4.90;;;2.53;;
7045;SDS011;3564;53.326;10.356;2023-05-21T00:38:40;4.87;;;2.70;;
7045;SDS011;3564;53.326;10.356;2023-05-21T00:41:09;4.90;;;3.03;;
7045;SDS011;3564;53.326;10.356;2023-05-21T00:43:35;6.17;;;3.07;;
7045;SDS011;3564;53.326;10.356;2023-05-21T00:46:04;4.43;;;2.60;;
7045;SDS011;3564;53.326;10.356;2023-05-21T00:48:35;6.47;;;2.80;;
7045;SDS011;3564;53.326;10.356;2023-05-21T00:51:02;3.50;;;2.57;;
7045;SDS011;3564;53.326;10.356;2023-05-21T00:53:28;4.77;;;2.53;;
7045;SDS011;3564;53.326;10.356;2023-05-21T00:55:54;4.47;;;2.50;;
7045;SDS011;3564;53.326;10.356;2023-05-21T00:58:20;3.80;;;2.80;;
7045;SDS011;3564;53.326;10.356;2023-05-21T01:00:46;5.40;;;2.93;;
7045;SDS011;3564;53.326;10.356;2023-05-21T01:03:15;4.40;;;2.70;;
7045;SDS011;3564;53.326;10.356;2023-05-21T01:05:41;4.40;;;2.63;;
7045;SDS011;3564;53.326;10.356;2023-05-21T01:08:09;3.63;;;2.70;;
7045;SDS011;3564;53.326;10.356;2023-05-21T01:10:35;6.43;;;2.77;;
7045;SDS011;3564;53.326;10.356;2023-05-21T01:13:00;4.17;;;2.70;;
7045;SDS011;3564;53.326;10.356;2023-05-21T01:15:26;4.07;;;2.80;;
7045;SDS011;3564;53.326;10.356;2023-05-21T01:17:53;5.33;;;2.80;;
7045;SDS011;3564;53.326;10.356;2023-05-21T01:20:20;3.53;;;2.47;;
7045;SDS011;3564;53.326;10.356;2023-05-21T01:22:55;4.57;;;2.33;;
7045;SDS011;3564;53.326;10.356;2023-05-21T01:25:21;4.07;;;2.50;;
7045;SDS011;3564;53.326;10.356;2023-05-21T01:27:49;5.67;;;2.77;;
7045;SDS011;3564;53.326;10.356;2023-05-21T01:30:15;4.07;;;2.43;;
7045;SDS011;3564;53.326;10.356;2023-05-21T01:41:01;5.97;;;2.57;;
7045;SDS011;3564;53.326;10.356;2023-05-21T01:43:31;5.00;;;2.40;;
7045;SDS011;3564;53.326;10.356;2023-05-21T01:45:59;4.17;;;2.83;;
7045;SDS011;3564;53.326;10.356;2023-05-21T01:48:29;5.60;;;2.60;;
7045;SDS011;3564;53.326;10.356;2023-05-21T01:50:57;5.33;;;2.40;;
7045;SDS011;3564;53.326;10.356;2023-05-21T01:53:26;4.80;;;2.60;;
7045;SDS011;3564;53.326;10.356;2023-05-21T01:55:51;4.37;;;2.70;;
7045;SDS011;3564;53.326;10.356;2023-05-21T01:58:19;5.53;;;2.50;;
7045;SDS011;3564;53.326;10.356;2023-05-21T02:00:48;4.77;;;2.60;;
7045;SDS011;3564;53.326;10.356;2023-05-21T02:03:15;4.10;;;2.57;;
7045;SDS011;3564;53.326;10.356;2023-05-21T02:05:43;5.90;;;2.77;;
7045;SDS011;3564;53.326;10.356;2023-05-21T02:08:09;5.67;;;3.20;;
7045;SDS011;3564;53.326;10.356;2023-05-21T02:10:35;4.30;;;2.70;;
7045;SDS011;3564;53.326;10.356;2023-05-21T02:13:01;6.00;;;3.07;;
7045;SDS011;3564;53.326;10.356;2023-05-21T02:15:26;4.93;;;2.53;;
7045;SDS011;3564;53.326;10.356;2023-05-21T02:17:52;7.47;;;2.33;;
7045;SDS011;3564;53.326;10.356;2023-05-21T02:20:17;5.00;;;2.57;;
7045;SDS011;3564;53.326;10.356;2023-05-21T02:22:44;4.73;;;2.70;;
7045;SDS011;3564;53.326;10.356;2023-05-21T02:25:11;6.30;;;2.43;;
7045;SDS011;3564;53.326;10.356;2023-05-21T02:27:38;4.03;;;2.37;;
7045;SDS011;3564;53.326;10.356;2023-05-21T02:30:06;3.03;;;2.30;;
7045;SDS011;3564;53.326;10.356;2023-05-21T02:32:40;3.90;;;2.57;;
7045;SDS011;3564;53.326;10.356;2023-05-21T02:35:07;5.60;;;3.20;;
7045;SDS011;3564;53.326;10.356;2023-05-21T02:37:34;6.63;;;3.03;;
7045;SDS011;3564;53.326;10.356;2023-05-21T02:40:01;4.37;;;2.73;;
7045;SDS011;3564;53.326;10.356;2023-05-21T02:42:28;6.57;;;2.70;;
7045;SDS011;3564;53.326;10.356;2023-05-21T02:44:54;3.23;;;2.63;;
7045;SDS011;3564;53.326;10.356;2023-05-21T02:47:20;4.43;;;3.13;;
7045;SDS011;3564;53.326;10.356;2023-05-21T02:49:48;5.63;;;2.70;;
7045;SDS011;3564;53.326;10.356;2023-05-21T02:52:15;4.83;;;2.90;;
7045;SDS011;3564;53.326;10.356;2023-05-21T02:54:45;3.83;;;2.70;;
7045;SDS011;3564;53.326;10.356;2023-05-21T02:57:11;6.17;;;3.17;;
7045;SDS011;3564;53.326;10.356;2023-05-21T02:59:37;4.57;;;2.63;;
7045;SDS011;3564;53.326;10.356;2023-05-21T03:02:03;3.67;;;2.30;;
7045;SDS011;3564;53.326;10.356;2023-05-21T03:04:29;4.80;;;2.67;;
7045;SDS011;3564;53.326;10.356;2023-05-21T03:06:55;4.07;;;3.00;;
7045;SDS011;3564;53.326;10.356;2023-05-21T03:09:22;5.23;;;2.80;;
7045;SDS011;3564;53.326;10.356;2023-05-21T03:11:48;5.03;;;2.80;;
7045;SDS011;3564;53.326;10.356;2023-05-21T03:14:14;7.70;;;3.00;;
7045;SDS011;3564;53.326;10.356;2023-05-21T03:16:40;7.27;;;2.60;;
7045;SDS011;3564;53.326;10.356;2023-05-21T03:19:07;4.57;;;3.23;;
7045;SDS011;3564;53.326;10.356;2023-05-21T03:21:33;7.40;;;2.77;;
7045;SDS011;3564;53.326;10.356;2023-05-21T03:24:00;5.70;;;2.97;;
7045;SDS011;3564;53.326;10.356;2023-05-21T03:26:27;5.13;;;3.03;;
7045;SDS011;3564;53.326;10.356;2023-05-21T03:28:53;7.37;;;3.03;;
7045;SDS011;3564;53.326;10.356;2023-05-21T03:31:20;4.70;;;2.90;;
7045;SDS011;3564;53.326;10.356;2023-05-21T03:33:46;5.53;;;2.83;;
7045;SDS011;3564;53.326;10.356;2023-05-21T03:36:11;5.57;;;2.90;;
7045;SDS011;3564;53.326;10.356;2023-05-21T03:38:37;9.10;;;3.10;;
7045;SDS011;3564;53.326;10.356;2023-05-21T03:41:03;4.57;;;2.93;;
7045;SDS011;3564;53.326;10.356;2023-05-21T03:43:28;4.70;;;2.77;;
7045;SDS011;3564;53.326;10.356;2023-05-21T03:45:54;3.73;;;3.43;;
7045;SDS011;3564;53.326;10.356;2023-05-21T03:48:20;5.87;;;2.83;;
7045;SDS011;3564;53.326;10.356;2023-05-21T03:50:45;4.47;;;2.80;;
7045;SDS011;3564;53.326;10.356;2023-05-21T03:53:11;5.83;;;3.23;;
7045;SDS011;3564;53.326;10.356;2023-05-21T03:55:37;4.63;;;3.10;;
7045;SDS011;3564;53.326;10.356;2023-05-21T03:58:03;7.10;;;3.00;;
7045;SDS011;3564;53.326;10.356;2023-05-21T04:00:29;6.77;;;2.80;;
7045;SDS011;3564;53.326;10.356;2023-05-21T04:02:57;8.80;;;3.60;;
7045;SDS011;3564;53.326;10.356;2023-05-21T04:05:22;6.37;;;3.03;;
7045;SDS011;3564;53.326;10.356;2023-05-21T04:07:48;4.97;;;2.80;;
7045;SDS011;3564;53.326;10.356;2023-05-21T04:10:14;7.63;;;3.20;;
7045;SDS011;3564;53.326;10.356;2023-05-21T04:12:40;5.33;;;3.07;;
7045;SDS011;3564;53.326;10.356;2023-05-21T04:15:06;6.10;;;3.60;;
7045;SDS011;3564;53.326;10.356;2023-05-21T04:17:32;5.43;;;3.50;;
7045;SDS011;3564;53.326;10.356;2023-05-21T04:19:58;4.90;;;3.30;;
7045;SDS011;3564;53.326;10.356;2023-05-21T04:22:24;8.20;;;3.97;;
7045;SDS011;3564;53.326;10.356;2023-05-21T04:24:51;3.80;;;3.10;;
7045;SDS011;3564;53.326;10.356;2023-05-21T04:27:21;5.53;;;2.80;;
7045;SDS011;3564;53.326;10.356;2023-05-21T04:29:50;3.63;;;3.03;;
7045;SDS011;3564;53.326;10.356;2023-05-21T04:32:16;6.60;;;3.17;;
7045;SDS011;3564;53.326;10.356;2023-05-21T04:34:42;6.03;;;3.50;;
7045;SDS011;3564;53.326;10.356;2023-05-21T04:37:08;7.20;;;3.20;;
7045;SDS011;3564;53.326;10.356;2023-05-21T04:39:34;5.20;;;3.20;;
7045;SDS011;3564;53.326;10.356;2023-05-21T04:42:00;4.47;;;3.00;;
7045;SDS011;3564;53.326;10.356;2023-05-21T04:44:30;6.43;;;3.67;;
7045;SDS011;3564;53.326;10.356;2023-05-21T04:46:55;4.37;;;3.03;;
7045;SDS011;3564;53.326;10.356;2023-05-21T04:49:21;5.37;;;3.33;;
7045;SDS011;3564;53.326;10.356;2023-05-21T04:51:47;5.50;;;3.27;;
7045;SDS011;3564;53.326;10.356;2023-05-21T04:54:13;5.63;;;2.90;;
7045;SDS011;3564;53.326;10.356;2023-05-21T04:56:39;5.07;;;3.27;;
7045;SDS011;3564;53.326;10.356;2023-05-21T04:59:05;6.03;;;3.10;;
7045;SDS011;3564;53.326;10.356;2023-05-21T05:01:31;6.03;;;3.63;;
7045;SDS011;3564;53.326;10.356;2023-05-21T05:03:58;5.43;;;3.73;;
7045;SDS011;3564;53.326;10.356;2023-05-21T05:06:24;5.83;;;3.20;;
7045;SDS011;3564;53.326;10.356;2023-05-21T05:08:51;9.27;;;3.57;;
7045;SDS011;3564;53.326;10.356;2023-05-21T05:11:16;5.70;;;3.27;;
7045;SDS011;3564;53.326;10.356;2023-05-21T05:13:42;9.63;;;4.03;;
7045;SDS011;3564;53.326;10.356;2023-05-21T05:16:07;5.53;;;3.40;;
7045;SDS011;3564;53.326;10.356;2023-05-21T05:18:36;7.77;;;4.03;;
7045;SDS011;3564;53.326;10.356;2023-05-21T05:21:04;6.07;;;3.50;;
7045;SDS011;3564;53.326;10.356;2023-05-21T05:23:30;5.97;;;4.00;;
7045;SDS011;3564;53.326;10.356;2023-05-21T05:25:55;5.43;;;3.60;;
7045;SDS011;3564;53.326;10.356;2023-05-21T05:28:21;6.13;;;4.17;;
7045;SDS011;3564;53.326;10.356;2023-05-21T05:30:47;5.43;;;4.10;;
7045;SDS011;3564;53.326;10.356;2023-05-21T05:33:12;7.10;;;3.73;;
7045;SDS011;3564;53.326;10.356;2023-05-21T05:35:38;5.20;;;3.90;;
7045;SDS011;3564;53.326;10.356;2023-05-21T05:38:03;7.47;;;3.60;;
7045;SDS011;3564;53.326;10.356;2023-05-21T05:40:29;7.23;;;4.63;;
7045;SDS011;3564;53.326;10.356;2023-05-21T05:42:55;6.43;;;4.10;;
7045;SDS011;3564;53.326;10.356;2023-05-21T05:45:20;6.87;;;4.43;;
7045;SDS011;3564;53.326;10.356;2023-05-21T05:47:46;6.93;;;3.67;;
7045;SDS011;3564;53.326;10.356;2023-05-21T05:50:11;5.60;;;3.97;;
7045;SDS011;3564;53.326;10.356;2023-05-21T05:52:37;6.37;;;3.67;;
7045;SDS011;3564;53.326;10.356;2023-05-21T05:55:03;6.20;;;4.30;;
7045;SDS011;3564;53.326;10.356;2023-05-21T05:57:28;5.70;;;3.90;;
7045;SDS011;3564;53.326;10.356;2023-05-21T05:59:54;9.90;;;4.40;;
7045;SDS011;3564;53.326;10.356;2023-05-21T06:02:20;5.27;;;4.27;;
7045;SDS011;3564;53.326;10.356;2023-05-21T06:04:45;7.43;;;4.37;;
7045;SDS011;3564;53.326;10.356;2023-05-21T06:07:11;6.63;;;4.53;;
7045;SDS011;3564;53.326;10.356;2023-05-21T06:09:36;5.57;;;4.07;;
7045;SDS011;3564;53.326;10.356;2023-05-21T06:12:03;6.37;;;4.43;;
7045;SDS011;3564;53.326;10.356;2023-05-21T06:14:32;11.23;;;4.30;;
7045;SDS011;3564;53.326;10.356;2023-05-21T06:16:57;7.47;;;4.57;;
7045;SDS011;3564;53.326;10.356;2023-05-21T06:19:23;7.27;;;4.00;;
7045;SDS011;3564;53.326;10.356;2023-05-21T06:21:48;10.27;;;5.37;;
7045;SDS011;3564;53.326;10.356;2023-05-21T06:24:14;5.37;;;4.67;;
7045;SDS011;3564;53.326;10.356;2023-05-21T06:26:40;7.70;;;4.63;;
7045;SDS011;3564;53.326;10.356;2023-05-21T06:29:07;6.23;;;4.27;;
7045;SDS011;3564;53.326;10.356;2023-05-21T06:31:32;6.07;;;4.80;;
7045;SDS011;3564;53.326;10.356;2023-05-21T06:33:58;7.13;;;5.20;;
7045;SDS011;3564;53.326;10.356;2023-05-21T06:36:25;7.40;;;5.30;;
7045;SDS011;3564;53.326;10.356;2023-05-21T06:38:54;6.67;;;5.20;;
7045;SDS011;3564;53.326;10.356;2023-05-21T06:41:23;8.17;;;5.23;;
7045;SDS011;3564;53.326;10.356;2023-05-21T06:43:50;11.57;;;5.47;;
7045;SDS011;3564;53.326;10.356;2023-05-21T06:46:15;9.23;;;5.33;;
7045;SDS011;3564;53.326;10.356;2023-05-21T06:48:41;6.63;;;5.07;;
7045;SDS011;3564;53.326;10.356;2023-05-21T06:51:07;8.87;;;5.97;;
7045;SDS011;3564;53.326;10.356;2023-05-21T06:53:33;6.93;;;5.47;;
7045;SDS011;3564;53.326;10.356;2023-05-21T06:55:59;7.73;;;5.93;;
7045;SDS011;3564;53.326;10.356;2023-05-21T06:58:24;6.13;;;5.30;;
7045;SDS011;3564;53.326;10.356;2023-05-21T07:00:55;6.83;;;5.60;;
7045;SDS011;3564;53.326;10.356;2023-05-21T07:03:21;9.30;;;5.80;;
7045;SDS011;3564;53.326;10.356;2023-05-21T07:05:46;5.73;;;5.07;;
7045;SDS011;3564;53.326;10.356;2023-05-21T07:08:12;9.07;;;6.40;;
7045;SDS011;3564;53.326;10.356;2023-05-21T07:10:38;7.43;;;5.40;;
7045;SDS011;3564;53.326;10.356;2023-05-21T07:13:04;7.80;;;5.60;;
7045;SDS011;3564;53.326;10.356;2023-05-21T07:15:30;7.40;;;6.37;;
7045;SDS011;3564;53.326;10.356;2023-05-21T07:17:56;7.63;;;5.53;;
7045;SDS011;3564;53.326;10.356;2023-05-21T07:20:21;9.27;;;6.97;;
7045;SDS011;3564;53.326;10.356;2023-05-21T07:22:47;8.00;;;6.63;;
7045;SDS011;3564;53.326;10.356;2023-05-21T07:25:12;7.47;;;6.50;;
7045;SDS011;3564;53.326;10.356;2023-05-21T07:27:38;9.83;;;6.83;;
7045;SDS011;3564;53.326;10.356;2023-05-21T07:30:03;7.90;;;6.57;;
7045;SDS011;3564;53.326;10.356;2023-05-21T07:32:29;9.87;;;7.53;;
7045;SDS011;3564;53.326;10.356;2023-05-21T07:34:55;9.27;;;7.23;;
7045;SDS011;3564;53.326;10.356;2023-05-21T07:37:21;9.87;;;7.60;;
7045;SDS011;3564;53.326;10.356;2023-05-21T07:39:46;10.23;;;7.67;;
7045;SDS011;3564;53.326;10.356;2023-05-21T07:42:12;10.67;;;7.73;;
7045;SDS011;3564;53.326;10.356;2023-05-21T07:44:37;10.33;;;8.13;;
7045;SDS011;3564;53.326;10.356;2023-05-21T07:47:03;9.23;;;7.97;;
7045;SDS011;3564;53.326;10.356;2023-05-21T07:49:29;10.60;;;8.57;;
7045;SDS011;3564;53.326;10.356;2023-05-21T07:51:54;9.57;;;7.87;;
7045;SDS011;3564;53.326;10.356;2023-05-21T07:54:20;9.73;;;8.20;;
7045;SDS011;3564;53.326;10.356;2023-05-21T07:56:45;9.90;;;7.50;;
7045;SDS011;3564;53.326;10.356;2023-05-21T07:59:13;9.40;;;7.17;;
7045;SDS011;3564;53.326;10.356;2023-05-21T08:01:41;11.13;;;8.10;;
7045;SDS011;3564;53.326;10.356;2023-05-21T08:04:07;9.80;;;7.93;;
7045;SDS011;3564;53.326;10.356;2023-05-21T08:06:33;9.50;;;8.13;;
7045;SDS011;3564;53.326;10.356;2023-05-21T08:09:01;10.17;;;7.87;;
7045;SDS011;3564;53.326;10.356;2023-05-21T08:11:27;8.30;;;7.37;;
7045;SDS011;3564;53.326;10.356;2023-05-21T08:13:53;11.17;;;8.27;;
7045;SDS011;3564;53.326;10.356;2023-05-21T08:16:19;9.33;;;7.83;;
7045;SDS011;3564;53.326;10.356;2023-05-21T08:18:45;8.40;;;7.50;;
7045;SDS011;3564;53.326;10.356;2023-05-21T08:21:10;10.33;;;7.77;;
7045;SDS011;3564;53.326;10.356;2023-05-21T08:23:36;9.77;;;7.57;;
7045;SDS011;3564;53.326;10.356;2023-05-21T08:26:02;8.57;;;7.67;;
7045;SDS011;3564;53.326;10.356;2023-05-21T08:28:27;9.83;;;8.30;;
7045;SDS011;3564;53.326;10.356;2023-05-21T08:30:54;13.63;;;10.13;;
7045;SDS011;3564;53.326;10.356;2023-05-21T08:33:19;10.07;;;8.97;;
7045;SDS011;3564;53.326;10.356;2023-05-21T08:35:45;9.47;;;8.47;;
7045;SDS011;3564;53.326;10.356;2023-05-21T08:38:10;9.57;;;7.73;;
7045;SDS011;3564;53.326;10.356;2023-05-21T08:40:36;12.47;;;8.97;;
7045;SDS011;3564;53.326;10.356;2023-05-21T08:43:01;10.00;;;8.83;;
7045;SDS011;3564;53.326;10.356;2023-05-21T08:45:28;13.23;;;9.23;;
7045;SDS011;3564;53.326;10.356;2023-05-21T08:48:01;10.33;;;8.47;;
7045;SDS011;3564;53.326;10.356;2023-05-21T08:50:27;10.30;;;9.03;;
7045;SDS011;3564;53.326;10.356;2023-05-21T08:52:55;10.77;;;9.67;;
7045;SDS011;3564;53.326;10.356;2023-05-21T08:55:23;12.97;;;9.20;;
7045;SDS011;3564;53.326;10.356;2023-05-21T08:57:49;11.10;;;9.17;;
7045;SDS011;3564;53.326;10.356;2023-05-21T09:00:17;10.90;;;9.80;;
7045;SDS011;3564;53.326;10.356;2023-05-21T09:02:45;9.60;;;8.40;;
7045;SDS011;3564;53.326;10.356;2023-05-21T09:05:11;9.97;;;8.77;;
7045;SDS011;3564;53.326;10.356;2023-05-21T09:07:40;15.50;;;9.83;;
7045;SDS011;3564;53.326;10.356;2023-05-21T09:10:11;12.93;;;9.67;;
7045;SDS011;3564;53.326;10.356;2023-05-21T09:12:37;12.60;;;9.67;;
7045;SDS011;3564;53.326;10.356;2023-05-21T09:15:04;13.90;;;9.43;;
7045;SDS011;3564;53.326;10.356;2023-05-21T09:17:30;11.60;;;9.17;;
7045;SDS011;3564;53.326;10.356;2023-05-21T09:20:09;13.57;;;9.90;;
7045;SDS011;3564;53.326;10.356;2023-05-21T09:25:05;11.00;;;9.87;;
7045;SDS011;3564;53.326;10.356;2023-05-21T09:27:33;11.20;;;9.10;;
7045;SDS011;3564;53.326;10.356;2023-05-21T09:29:58;11.87;;;8.90;;
7045;SDS011;3564;53.326;10.356;2023-05-21T09:32:24;9.97;;;8.97;;
7045;SDS011;3564;53.326;10.356;2023-05-21T09:34:50;9.97;;;8.97;;
7045;SDS011;3564;53.326;10.356;2023-05-21T09:37:15;9.73;;;8.17;;
7045;SDS011;3564;53.326;10.356;2023-05-21T09:39:41;9.93;;;8.93;;
7045;SDS011;3564;53.326;10.356;2023-05-21T09:42:07;11.30;;;9.70;;
7045;SDS011;3564;53.326;10.356;2023-05-21T09:44:33;11.40;;;9.07;;
7045;SDS011;3564;53.326;10.356;2023-05-21T09:46:59;11.60;;;9.43;;
7045;SDS011;3564;53.326;10.356;2023-05-21T09:49:26;11.70;;;9.13;;
7045;SDS011;3564;53.326;10.356;2023-05-21T09:51:55;10.67;;;9.63;;
7045;SDS011;3564;53.326;10.356;2023-05-21T09:54:22;9.53;;;8.63;;
7045;SDS011;3564;53.326;10.356;2023-05-21T09:56:49;12.90;;;10.00;;
7045;SDS011;3564;53.326;10.356;2023-05-21T09:59:19;11.43;;;9.30;;
7045;SDS011;3564;53.326;10.356;2023-05-21T10:01:45;10.63;;;9.50;;
7045;SDS011;3564;53.326;10.356;2023-05-21T10:04:10;12.20;;;10.10;;
7045;SDS011;3564;53.326;10.356;2023-05-21T10:06:40;11.73;;;10.30;;
7045;SDS011;3564;53.326;10.356;2023-05-21T10:09:10;12.37;;;10.30;;
7045;SDS011;3564;53.326;10.356;2023-05-21T10:11:39;12.83;;;10.10;;
7045;SDS011;3564;53.326;10.356;2023-05-21T10:14:13;12.60;;;10.00;;
7045;SDS011;3564;53.326;10.356;2023-05-21T10:16:49;11.93;;;10.67;;
7045;SDS011;3564;53.326;10.356;2023-05-21T10:19:36;16.23;;;10.70;;
7045;SDS011;3564;53.326;10.356;2023-05-21T10:22:03;11.50;;;10.33;;
7045;SDS011;3564;53.326;10.356;2023-05-21T10:24:30;12.33;;;10.00;;
7045;SDS011;3564;53.326;10.356;2023-05-21T10:27:01;10.77;;;9.77;;
7045;SDS011;3564;53.326;10.356;2023-05-21T10:29:29;12.90;;;10.37;;
7045;SDS011;3564;53.326;10.356;2023-05-21T10:31:55;12.17;;;10.40;;
7045;SDS011;3564;53.326;10.356;2023-05-21T10:34:22;12.50;;;10.50;;
7045;SDS011;3564;53.326;10.356;2023-05-21T10:36:48;11.67;;;10.20;;
7045;SDS011;3564;53.326;10.356;2023-05-21T10:39:16;12.13;;;10.53;;
7045;SDS011;3564;53.326;10.356;2023-05-21T10:41:55;11.77;;;10.57;;
7045;SDS011;3564;53.326;10.356;2023-05-21T10:47:06;11.00;;;9.87;;
7045;SDS011;3564;53.326;10.356;2023-05-21T10:49:58;11.07;;;10.00;;
7045;SDS011;3564;53.326;10.356;2023-05-21T11:01:22;10.87;;;9.77;;
7045;SDS011;3564;53.326;10.356;2023-05-21T11:03:54;11.07;;;9.97;;
7045;SDS011;3564;53.326;10.356;2023-05-21T11:06:21;10.47;;;9.37;;
7045;SDS011;3564;53.326;10.356;2023-05-21T11:08:49;11.57;;;10.10;;
7045;SDS011;3564;53.326;10.356;2023-05-21T11:11:38;11.17;;;10.07;;
7045;SDS011;3564;53.326;10.356;2023-05-21T11:20:02;13.60;;;10.53;;
7045;SDS011;3564;53.326;10.356;2023-05-21T11:22:31;10.43;;;9.30;;
7045;SDS011;3564;53.326;10.356;2023-05-21T11:25:00;13.10;;;10.40;;
7045;SDS011;3564;53.326;10.356;2023-05-21T11:27:34;11.77;;;10.13;;
7045;SDS011;3564;53.326;10.356;2023-05-21T11:30:02;10.40;;;9.40;;
7045;SDS011;3564;53.326;10.356;2023-05-21T11:32:29;11.07;;;10.03;;
7045;SDS011;3564;53.326;10.356;2023-05-21T11:34:55;10.97;;;9.87;;
7045;SDS011;3564;53.326;10.356;2023-05-21T11:37:25;11.70;;;9.68;;
7045;SDS011;3564;53.326;10.356;2023-05-21T11:39:53;12.40;;;10.40;;
7045;SDS011;3564;53.326;10.356;2023-05-21T11:42:29;10.70;;;9.67;;
7045;SDS011;3564;53.326;10.356;2023-05-21T11:45:03;12.77;;;10.37;;
7045;SDS011;3564;53.326;10.356;2023-05-21T11:47:47;11.83;;;10.70;;
7045;SDS011;3564;53.326;10.356;2023-05-21T11:50:14;11.07;;;9.63;;
7045;SDS011;3564;53.326;10.356;2023-05-21T11:52:40;10.70;;;9.50;;
7045;SDS011;3564;53.326;10.356;2023-05-21T11:55:07;11.25;;;9.57;;
7045;SDS011;3564;53.326;10.356;2023-05-21T11:57:33;12.87;;;11.13;;
7045;SDS011;3564;53.326;10.356;2023-05-21T11:59:59;11.30;;;10.30;;
7045;SDS011;3564;53.326;10.356;2023-05-21T12:02:29;10.57;;;9.55;;
7045;SDS011;3564;53.326;10.356;2023-05-21T12:04:56;12.93;;;10.53;;
7045;SDS011;3564;53.326;10.356;2023-05-21T12:07:27;11.23;;;10.03;;
7045;SDS011;3564;53.326;10.356;2023-05-21T12:09:53;12.10;;;10.90;;
7045;SDS011;3564;53.326;10.356;2023-05-21T12:12:20;10.82;;;9.82;;
7045;SDS011;3564;53.326;10.356;2023-05-21T12:14:50;11.57;;;10.05;;
7045;SDS011;3564;53.326;10.356;2023-05-21T12:17:18;12.18;;;10.35;;
7045;SDS011;3564;53.326;10.356;2023-05-21T12:19:49;11.27;;;10.18;;
7045;SDS011;3564;53.326;10.356;2023-05-21T12:22:16;10.82;;;9.65;;
7045;SDS011;3564;53.326;10.356;2023-05-21T12:24:42;10.95;;;9.85;;
7045;SDS011;3564;53.326;10.356;2023-05-21T12:27:10;12.38;;;10.77;;
7045;SDS011;3564;53.326;10.356;2023-05-21T12:29:37;12.50;;;11.18;;
7045;SDS011;3564;53.326;10.356;2023-05-21T12:32:07;12.48;;;10.60;;
7045;SDS011;3564;53.326;10.356;2023-05-21T12:37:03;11.77;;;10.57;;
7045;SDS011;3564;53.326;10.356;2023-05-21T12:39:30;11.18;;;10.05;;
7045;SDS011;3564;53.326;10.356;2023-05-21T12:41:57;11.00;;;9.90;;
7045;SDS011;3564;53.326;10.356;2023-05-21T12:44:22;12.93;;;9.60;;
7045;SDS011;3564;53.326;10.356;2023-05-21T12:46:48;10.60;;;9.60;;
7045;SDS011;3564;53.326;10.356;2023-05-21T12:49:36;10.77;;;9.70;;
7045;SDS011;3564;53.326;10.356;2023-05-21T12:52:04;10.45;;;9.35;;
7045;SDS011;3564;53.326;10.356;2023-05-21T12:54:38;11.20;;;9.75;;
7045;SDS011;3564;53.326;10.356;2023-05-21T12:57:15;9.75;;;8.88;;
7045;SDS011;3564;53.326;10.356;2023-05-21T12:59:47;10.18;;;9.15;;
7045;SDS011;3564;53.326;10.356;2023-05-21T13:02:14;9.98;;;9.05;;
7045;SDS011;3564;53.326;10.356;2023-05-21T13:04:41;9.77;;;8.82;;
7045;SDS011;3564;53.326;10.356;2023-05-21T13:07:06;8.18;;;7.38;;
7045;SDS011;3564;53.326;10.356;2023-05-21T13:09:32;9.43;;;8.20;;
7045;SDS011;3564;53.326;10.356;2023-05-21T13:11:57;9.13;;;7.60;;
7045;SDS011;3564;53.326;10.356;2023-05-21T13:14:23;9.40;;;7.65;;
7045;SDS011;3564;53.326;10.356;2023-05-21T13:16:49;8.05;;;7.20;;
7045;SDS011;3564;53.326;10.356;2023-05-21T13:19:14;8.98;;;6.97;;
7045;SDS011;3564;53.326;10.356;2023-05-21T13:21:40;7.88;;;7.10;;
7045;SDS011;3564;53.326;10.356;2023-05-21T13:24:06;8.60;;;7.80;;
7045;SDS011;3564;53.326;10.356;2023-05-21T13:26:33;7.75;;;6.93;;
7045;SDS011;3564;53.326;10.356;2023-05-21T13:29:00;9.25;;;8.07;;
7045;SDS011;3564;53.326;10.356;2023-05-21T13:31:26;8.93;;;7.60;;
7045;SDS011;3564;53.326;10.356;2023-05-21T13:33:52;8.50;;;7.57;;
7045;SDS011;3564;53.326;10.356;2023-05-21T13:36:17;8.48;;;7.68;;
7045;SDS011;3564;53.326;10.356;2023-05-21T13:38:43;8.50;;;6.85;;
7045;SDS011;3564;53.326;10.356;2023-05-21T13:41:09;8.30;;;7.47;;
7045;SDS011;3564;53.326;10.356;2023-05-21T13:43:34;11.40;;;7.60;;
7045;SDS011;3564;53.326;10.356;2023-05-21T13:46:00;7.88;;;6.90;;
7045;SDS011;3564;53.326;10.356;2023-05-21T13:48:25;7.43;;;6.72;;
7045;SDS011;3564;53.326;10.356;2023-05-21T13:50:51;7.10;;;6.35;;
7045;SDS011;3564;53.326;10.356;2023-05-21T13:53:17;7.43;;;6.72;;
7045;SDS011;3564;53.326;10.356;2023-05-21T13:55:42;8.50;;;6.53;;
7045;SDS011;3564;53.326;10.356;2023-05-21T13:58:08;8.93;;;6.30;;
7045;SDS011;3564;53.326;10.356;2023-05-21T14:00:33;6.90;;;6.22;;
7045;SDS011;3564;53.326;10.356;2023-05-21T14:02:59;6.95;;;6.30;;
7045;SDS011;3564;53.326;10.356;2023-05-21T14:05:25;7.50;;;6.80;;
7045;SDS011;3564;53.326;10.356;2023-05-21T14:07:50;6.95;;;6.18;;
7045;SDS011;3564;53.326;10.356;2023-05-21T14:10:17;6.70;;;6.00;;
7045;SDS011;3564;53.326;10.356;2023-05-21T14:12:43;8.15;;;6.55;;
7045;SDS011;3564;53.326;10.356;2023-05-21T14:15:10;8.90;;;6.70;;
7045;SDS011;3564;53.326;10.356;2023-05-21T14:17:36;8.32;;;6.78;;
7045;SDS011;3564;53.326;10.356;2023-05-21T14:20:04;9.10;;;6.68;;
7045;SDS011;3564;53.326;10.356;2023-05-21T14:22:31;7.20;;;6.60;;
7045;SDS011;3564;53.326;10.356;2023-05-21T14:24:56;7.38;;;6.10;;
7045;SDS011;3564;53.326;10.356;2023-05-21T14:27:22;6.75;;;6.05;;
7045;SDS011;3564;53.326;10.356;2023-05-21T14:29:47;7.32;;;6.63;;
7045;SDS011;3564;53.326;10.356;2023-05-21T14:32:13;7.35;;;6.65;;
7045;SDS011;3564;53.326;10.356;2023-05-21T14:34:38;8.10;;;6.72;;
7045;SDS011;3564;53.326;10.356;2023-05-21T14:37:05;7.70;;;6.65;;
7045;SDS011;3564;53.326;10.356;2023-05-21T14:39:30;6.75;;;6.10;;
7045;SDS011;3564;53.326;10.356;2023-05-21T14:41:56;8.38;;;6.70;;
7045;SDS011;3564;53.326;10.356;2023-05-21T14:44:21;7.22;;;6.63;;
7045;SDS011;3564;53.326;10.356;2023-05-21T14:46:47;7.38;;;6.68;;
7045;SDS011;3564;53.326;10.356;2023-05-21T14:49:12;6.97;;;6.28;;
7045;SDS011;3564;53.326;10.356;2023-05-21T14:51:38;7.47;;;6.50;;
7045;SDS011;3564;53.326;10.356;2023-05-21T14:54:04;6.45;;;5.72;;
7045;SDS011;3564;53.326;10.356;2023-05-21T14:56:30;7.10;;;6.05;;
7045;SDS011;3564;53.326;10.356;2023-05-21T14:58:55;6.88;;;6.10;;
7045;SDS011;3564;53.326;10.356;2023-05-21T15:01:21;6.00;;;5.43;;
7045;SDS011;3564;53.326;10.356;2023-05-21T15:03:47;7.20;;;6.50;;
7045;SDS011;3564;53.326;10.356;2023-05-21T15:06:13;7.55;;;6.75;;
7045;SDS011;3564;53.326;10.356;2023-05-21T15:08:38;6.88;;;6.18;;
7045;SDS011;3564;53.326;10.356;2023-05-21T15:11:04;7.32;;;6.00;;
7045;SDS011;3564;53.326;10.356;2023-05-21T15:13:31;8.10;;;7.22;;
7045;SDS011;3564;53.326;10.356;2023-05-21T15:15:57;6.63;;;6.03;;
7045;SDS011;3564;53.326;10.356;2023-05-21T15:18:22;8.25;;;5.75;;
7045;SDS011;3564;53.326;10.356;2023-05-21T15:20:48;6.38;;;5.85;;
7045;SDS011;3564;53.326;10.356;2023-05-21T15:23:15;8.00;;;6.03;;
7045;SDS011;3564;53.326;10.356;2023-05-21T15:25:40;6.63;;;6.03;;